Time;durP1;ratioP1;P1;durP2;ratioP2;P2;SDS_P1;SDS_P2;PMS_P1;PMS_P2;Temp;Humidity;BMP_temperature;BMP_pressure;BME280_temperature;BME280_humidity;BME280_pressure;Samples;Min_cycle;Max_cycle;Signal;HPM_P1;HPM_P2
2021/06/05 00:01:30;;;;;;;10.10;8.60;;;;;;;;;;4992326;28;20448;-65
2021/06/05 00:03:56;;;;;;;9.30;7.30;;;;;;;;;;4993660;28;20419;-65
2021/06/05 00:06:24;;;;;;;11.67;8.80;;;;;;;;;;4993459;28;20442;-65
2021/06/05 00:08:50;;;;;;;9.77;8.87;;;;;;;;;;4991939;28;20839;-65
2021/06/05 00:11:17;;;;;;;8.57;7.67;;;;;;;;;;4976813;28;20783;-64
2021/06/05 00:13:45;;;;;;;10.00;8.30;;;;;;;;;;4984401;28;20433;-65
2021/06/05 00:16:15;;;;;;;9.63;8.53;;;;;;;;;;4973787;28;20484;-65
2021/06/05 00:18:41;;;;;;;10.00;8.40;;;;;;;;;;4988512;28;20439;-65
2021/06/05 00:21:07;;;;;;;10.00;9.00;;;;;;;;;;4995057;28;20474;-65
2021/06/05 00:23:33;;;;;;;16.17;8.83;;;;;;;;;;4996560;28;20424;-65
2021/06/05 00:26:00;;;;;;;10.43;7.50;;;;;;;;;;4997701;28;20507;-65
2021/06/05 00:28:26;;;;;;;12.43;8.20;;;;;;;;;;4996594;28;20425;-65
2021/06/05 00:30:53;;;;;;;11.03;9.53;;;;;;;;;;4990047;28;20429;-66
2021/06/05 00:33:19;;;;;;;8.87;7.90;;;;;;;;;;4988388;28;20439;-65
2021/06/05 00:35:45;;;;;;;9.20;8.17;;;;;;;;;;4997251;28;20516;-65
2021/06/05 00:38:11;;;;;;;9.37;8.30;;;;;;;;;;4985587;28;20452;-65
2021/06/05 00:40:39;;;;;;;10.77;9.43;;;;;;;;;;4976672;28;20512;-65
2021/06/05 00:43:05;;;;;;;10.37;8.30;;;;;;;;;;4986226;28;20420;-65
2021/06/05 00:45:33;;;;;;;9.97;8.93;;;;;;;;;;4996977;28;20431;-65
2021/06/05 00:48:00;;;;;;;10.53;8.33;;;;;;;;;;4996067;28;20502;-65
2021/06/05 00:50:28;;;;;;;11.63;8.47;;;;;;;;;;4997118;28;20432;-65
2021/06/05 00:52:54;;;;;;;13.97;8.43;;;;;;;;;;4995868;28;20466;-65
2021/06/05 00:55:21;;;;;;;8.40;7.60;;;;;;;;;;4996767;28;20424;-65
2021/06/05 00:57:47;;;;;;;11.10;8.80;;;;;;;;;;4989371;28;20616;-64
2021/06/05 01:00:34;;;;;;;10.30;8.80;;;;;;;;;;4977348;28;20405;-65
2021/06/05 01:03:01;;;;;;;11.00;7.60;;;;;;;;;;4980325;28;21068;-65
2021/06/05 01:05:27;;;;;;;8.83;7.93;;;;;;;;;;4977293;28;20805;-64
2021/06/05 01:07:54;;;;;;;9.37;7.60;;;;;;;;;;4982883;28;20432;-65
2021/06/05 01:10:27;;;;;;;8.90;8.00;;;;;;;;;;4996446;28;20496;-65
2021/06/05 01:13:00;;;;;;;10.10;7.50;;;;;;;;;;4996048;28;20424;-65
2021/06/05 01:16:02;;;;;;;9.90;8.00;;;;;;;;;;4984479;28;20519;-66
2021/06/05 01:18:39;;;;;;;10.40;7.10;;;;;;;;;;4993451;28;20439;-64
2021/06/05 01:21:23;;;;;;;8.73;7.50;;;;;;;;;;4996607;28;20459;-65
2021/06/05 01:24:08;;;;;;;10.43;8.40;;;;;;;;;;4987358;28;20871;-65
2021/06/05 01:26:35;;;;;;;8.30;6.83;;;;;;;;;;4977066;28;20418;-65
2021/06/05 01:29:20;;;;;;;8.60;7.03;;;;;;;;;;4976741;28;20433;-65
2021/06/05 01:31:49;;;;;;;7.20;5.77;;;;;;;;;;4976940;28;20428;-65
2021/06/05 01:34:15;;;;;;;6.63;5.20;;;;;;;;;;4976585;28;20433;-64
2021/06/05 01:36:43;;;;;;;6.30;4.70;;;;;;;;;;4976766;28;20425;-65
2021/06/05 01:39:12;;;;;;;5.73;5.00;;;;;;;;;;4986672;28;20429;-65
2021/06/05 01:41:40;;;;;;;8.93;5.50;;;;;;;;;;4996083;28;20564;-65
2021/06/05 01:44:06;;;;;;;5.90;5.30;;;;;;;;;;4991936;28;20937;-65
2021/06/05 01:46:34;;;;;;;5.70;5.10;;;;;;;;;;4995982;28;20424;-65
2021/06/05 01:49:01;;;;;;;6.60;5.40;;;;;;;;;;4993992;28;20431;-65
2021/06/05 01:51:27;;;;;;;6.53;5.73;;;;;;;;;;4996179;28;20467;-65
2021/06/05 01:53:55;;;;;;;8.17;5.87;;;;;;;;;;4994631;28;20424;-65
2021/06/05 01:56:34;;;;;;;7.40;6.10;;;;;;;;;;4995729;28;20429;-65
2021/06/05 01:59:00;;;;;;;6.23;4.90;;;;;;;;;;4987833;28;20438;-65
2021/06/05 02:01:26;;;;;;;6.20;4.93;;;;;;;;;;4976643;28;20808;-66
2021/06/05 02:03:53;;;;;;;5.50;4.90;;;;;;;;;;4987252;28;20764;-65
2021/06/05 02:06:19;;;;;;;5.20;4.70;;;;;;;;;;4976414;28;20872;-65
2021/06/05 02:08:46;;;;;;;6.00;5.20;;;;;;;;;;4981620;28;20784;-66
2021/06/05 02:11:13;;;;;;;7.43;5.53;;;;;;;;;;4996112;28;20762;-65
2021/06/05 02:13:42;;;;;;;7.30;6.00;;;;;;;;;;4995261;28;20508;-65
2021/06/05 02:16:30;;;;;;;8.17;6.57;;;;;;;;;;4995826;28;20479;-66
2021/06/05 02:18:58;;;;;;;7.53;6.70;;;;;;;;;;4994151;28;20425;-65
2021/06/05 02:21:27;;;;;;;7.97;6.57;;;;;;;;;;4994242;28;20913;-66
2021/06/05 02:24:05;;;;;;;10.77;5.83;;;;;;;;;;4993656;28;20940;-66
2021/06/05 02:26:33;;;;;;;10.27;8.50;;;;;;;;;;4995176;28;20997;-65
2021/06/05 02:29:00;;;;;;;9.57;7.70;;;;;;;;;;4993970;28;20921;-66
2021/06/05 02:31:28;;;;;;;10.63;8.80;;;;;;;;;;4995255;28;20428;-65
2021/06/05 02:33:54;;;;;;;10.77;8.93;;;;;;;;;;4994276;28;20416;-65
2021/06/05 02:36:21;;;;;;;12.37;9.00;;;;;;;;;;4994942;28;20495;-65
2021/06/05 02:38:49;;;;;;;11.30;8.57;;;;;;;;;;4993982;28;20425;-65
2021/06/05 02:41:16;;;;;;;14.03;11.13;;;;;;;;;;4994858;28;20859;-64
2021/06/05 02:43:44;;;;;;;14.07;9.80;;;;;;;;;;4993061;28;20424;-64
2021/06/05 02:46:14;;;;;;;13.67;10.00;;;;;;;;;;4995049;28;20786;-64
2021/06/05 02:48:46;;;;;;;15.67;11.20;;;;;;;;;;4993693;28;20885;-65
2021/06/05 02:51:12;;;;;;;18.70;9.67;;;;;;;;;;4993689;28;20420;-66
2021/06/05 02:53:39;;;;;;;12.37;10.50;;;;;;;;;;4979805;28;20494;-65
2021/06/05 02:56:05;;;;;;;16.53;10.50;;;;;;;;;;4980946;28;20503;-65
2021/06/05 02:58:31;;;;;;;11.93;10.23;;;;;;;;;;4993839;28;21033;-65
2021/06/05 03:00:57;;;;;;;19.17;11.37;;;;;;;;;;4994703;28;20436;-65
2021/06/05 03:03:23;;;;;;;15.30;11.50;;;;;;;;;;4994887;28;20812;-65
2021/06/05 03:05:50;;;;;;;15.90;12.10;;;;;;;;;;4977932;28;20483;-65
2021/06/05 03:08:27;;;;;;;14.07;10.97;;;;;;;;;;4975767;28;20397;-65
2021/06/05 03:10:54;;;;;;;17.50;11.47;;;;;;;;;;4994140;28;20776;-64
2021/06/05 03:13:20;;;;;;;14.87;12.13;;;;;;;;;;4994444;28;20493;-65
2021/06/05 03:15:47;;;;;;;12.97;11.57;;;;;;;;;;4993132;28;20445;-65
2021/06/05 03:18:17;;;;;;;16.40;11.53;;;;;;;;;;4994253;28;20412;-65
2021/06/05 03:20:44;;;;;;;14.53;10.57;;;;;;;;;;4976499;28;20426;-65
2021/06/05 03:23:11;;;;;;;13.60;10.77;;;;;;;;;;4990195;28;20452;-65
2021/06/05 03:25:37;;;;;;;13.60;10.63;;;;;;;;;;4990517;28;20596;-65
2021/06/05 03:28:03;;;;;;;14.20;10.70;;;;;;;;;;4985853;28;20421;-63
2021/06/05 03:30:30;;;;;;;12.70;10.70;;;;;;;;;;4989144;28;20421;-65
2021/06/05 03:32:56;;;;;;;10.53;9.43;;;;;;;;;;4994387;28;20821;-65
2021/06/05 03:35:22;;;;;;;13.73;11.03;;;;;;;;;;4992268;28;20452;-65
2021/06/05 03:37:48;;;;;;;10.87;9.50;;;;;;;;;;4992798;28;20405;-65
2021/06/05 03:40:16;;;;;;;12.03;10.77;;;;;;;;;;4989209;28;20459;-65
2021/06/05 03:42:42;;;;;;;13.13;10.67;;;;;;;;;;4993944;28;20440;-65
2021/06/05 03:45:10;;;;;;;10.83;9.40;;;;;;;;;;4986669;28;20448;-65
2021/06/05 03:47:36;;;;;;;12.47;10.90;;;;;;;;;;4974518;28;20406;-65
2021/06/05 03:50:03;;;;;;;10.73;9.57;;;;;;;;;;4979934;28;20988;-65
2021/06/05 03:52:30;;;;;;;16.73;9.80;;;;;;;;;;4993833;28;20412;-65
2021/06/05 03:54:56;;;;;;;12.10;9.60;;;;;;;;;;4991903;28;20420;-65
2021/06/05 03:57:24;;;;;;;10.17;9.07;;;;;;;;;;4993892;28;20412;-65
2021/06/05 03:59:53;;;;;;;10.40;8.93;;;;;;;;;;4992611;28;20431;-65
2021/06/05 04:02:19;;;;;;;11.60;9.80;;;;;;;;;;4993956;28;20893;-65
2021/06/05 04:04:45;;;;;;;10.40;9.30;;;;;;;;;;4991743;28;20437;-65
2021/06/05 04:07:12;;;;;;;11.57;8.60;;;;;;;;;;4991344;28;20491;-65
2021/06/05 04:09:38;;;;;;;10.33;8.47;;;;;;;;;;4992514;28;20404;-65
2021/06/05 04:12:05;;;;;;;9.10;7.67;;;;;;;;;;4993553;28;20409;-64
2021/06/05 04:14:31;;;;;;;11.90;8.80;;;;;;;;;;4992318;28;20893;-64
2021/06/05 04:16:57;;;;;;;9.17;8.00;;;;;;;;;;4973977;28;20508;-65
2021/06/05 04:19:24;;;;;;;8.93;7.97;;;;;;;;;;4974551;28;20766;-65
2021/06/05 04:21:50;;;;;;;12.13;8.40;;;;;;;;;;4992919;28;20461;-65
2021/06/05 04:24:16;;;;;;;10.50;8.27;;;;;;;;;;4993583;28;20409;-65
2021/06/05 04:26:42;;;;;;;10.80;8.53;;;;;;;;;;4974857;28;20456;-65
2021/06/05 04:29:09;;;;;;;8.80;7.10;;;;;;;;;;4974059;28;20487;-65
2021/06/05 04:31:35;;;;;;;10.33;8.40;;;;;;;;;;4990108;28;20432;-65
2021/06/05 04:34:01;;;;;;;9.70;7.60;;;;;;;;;;4993605;28;20481;-64
2021/06/05 04:36:27;;;;;;;9.83;7.60;;;;;;;;;;4977366;28;20457;-64
2021/06/05 04:38:53;;;;;;;10.43;6.23;;;;;;;;;;4974121;28;20409;-65
2021/06/05 04:41:19;;;;;;;6.03;5.43;;;;;;;;;;4977099;28;20784;-65
2021/06/05 04:43:46;;;;;;;8.60;6.90;;;;;;;;;;4973914;28;20402;-65
2021/06/05 04:46:13;;;;;;;7.10;6.40;;;;;;;;;;4986511;28;20441;-65
2021/06/05 04:48:39;;;;;;;11.30;7.27;;;;;;;;;;4993842;28;20401;-65
2021/06/05 04:51:06;;;;;;;10.10;7.10;;;;;;;;;;4992359;28;20427;-65
2021/06/05 04:53:32;;;;;;;7.50;5.60;;;;;;;;;;4993268;28;20930;-65
2021/06/05 04:55:58;;;;;;;7.60;6.80;;;;;;;;;;4992483;28;20444;-65
2021/06/05 04:58:24;;;;;;;9.60;5.67;;;;;;;;;;4993292;28;20444;-65
2021/06/05 05:00:51;;;;;;;6.40;5.53;;;;;;;;;;4988023;28;20487;-65
2021/06/05 05:03:19;;;;;;;5.70;5.00;;;;;;;;;;4973665;28;20429;-65
2021/06/05 05:05:45;;;;;;;7.77;3.93;;;;;;;;;;4976668;28;20988;-65
2021/06/05 05:08:13;;;;;;;6.03;4.87;;;;;;;;;;4977592;28;20475;-64
2021/06/05 05:10:40;;;;;;;6.40;4.50;;;;;;;;;;4979398;28;20474;-65
2021/06/05 05:13:07;;;;;;;5.70;4.90;;;;;;;;;;4997114;28;20444;-65
2021/06/05 05:15:33;;;;;;;4.33;3.93;;;;;;;;;;4994531;28;20448;-65
2021/06/05 05:17:59;;;;;;;4.63;4.10;;;;;;;;;;4977079;28;20410;-65
2021/06/05 05:20:27;;;;;;;5.27;3.50;;;;;;;;;;4976942;28;20408;-66
2021/06/05 05:22:53;;;;;;;5.17;3.37;;;;;;;;;;4977288;28;20457;-65
2021/06/05 05:25:19;;;;;;;4.47;3.70;;;;;;;;;;4977368;28;20429;-65
2021/06/05 05:27:45;;;;;;;6.60;4.27;;;;;;;;;;4995379;28;20424;-64
2021/06/05 05:30:14;;;;;;;3.33;2.90;;;;;;;;;;4996289;28;20407;-64
2021/06/05 05:32:41;;;;;;;5.03;3.93;;;;;;;;;;4994847;28;20531;-64
2021/06/05 05:35:07;;;;;;;4.43;3.30;;;;;;;;;;4996701;28;20416;-64
2021/06/05 05:37:33;;;;;;;4.57;2.97;;;;;;;;;;4995497;28;20432;-65
2021/06/05 05:39:59;;;;;;;4.20;2.83;;;;;;;;;;4995087;28;20442;-65
2021/06/05 05:42:26;;;;;;;3.40;3.00;;;;;;;;;;4995649;28;20555;-65
2021/06/05 05:44:52;;;;;;;3.90;2.67;;;;;;;;;;4996226;28;20405;-65
2021/06/05 05:47:18;;;;;;;5.37;2.80;;;;;;;;;;4995354;28;20559;-65
2021/06/05 05:49:44;;;;;;;5.80;2.40;;;;;;;;;;4996377;28;20416;-65
2021/06/05 05:52:10;;;;;;;3.97;3.10;;;;;;;;;;4995152;28;20433;-65
2021/06/05 05:54:36;;;;;;;3.10;2.37;;;;;;;;;;4995065;28;20560;-65
2021/06/05 05:57:02;;;;;;;3.67;2.40;;;;;;;;;;4984100;28;20433;-64
2021/06/05 05:59:28;;;;;;;4.10;2.30;;;;;;;;;;4976960;28;20421;-65
2021/06/05 06:01:54;;;;;;;2.93;2.07;;;;;;;;;;4976533;28;20548;-64
2021/06/05 06:04:20;;;;;;;3.70;2.17;;;;;;;;;;4976530;28;20406;-64
2021/06/05 06:06:46;;;;;;;2.60;2.00;;;;;;;;;;4976453;28;20460;-65
2021/06/05 06:09:14;;;;;;;3.77;1.87;;;;;;;;;;4977013;28;20433;-65
2021/06/05 06:11:43;;;;;;;3.50;2.27;;;;;;;;;;4983678;28;20439;-65
2021/06/05 06:14:10;;;;;;;3.90;2.83;;;;;;;;;;4996378;28;20411;-65
2021/06/05 06:16:36;;;;;;;2.67;1.90;;;;;;;;;;4994840;28;20467;-65
2021/06/05 06:19:02;;;;;;;2.60;2.00;;;;;;;;;;4995461;28;20936;-65
2021/06/05 06:21:28;;;;;;;2.50;1.73;;;;;;;;;;4989636;28;20464;-65
2021/06/05 06:23:54;;;;;;;3.10;2.10;;;;;;;;;;4976513;28;20406;-65
2021/06/05 06:26:22;;;;;;;2.90;1.80;;;;;;;;;;4983535;28;20447;-66
2021/06/05 06:28:49;;;;;;;3.00;2.03;;;;;;;;;;5000363;28;20421;-65
2021/06/05 06:31:17;;;;;;;4.40;2.20;;;;;;;;;;4994903;28;20772;-65
2021/06/05 06:33:43;;;;;;;3.00;1.90;;;;;;;;;;4995957;28;20785;-65
2021/06/05 06:36:09;;;;;;;2.70;1.67;;;;;;;;;;4992242;28;20445;-66
2021/06/05 06:38:38;;;;;;;3.77;3.13;;;;;;;;;;4975961;28;20405;-64
2021/06/05 06:41:07;;;;;;;4.03;2.27;;;;;;;;;;4977221;28;20441;-64
2021/06/05 06:43:33;;;;;;;3.80;1.93;;;;;;;;;;4995436;28;20401;-65
2021/06/05 06:46:01;;;;;;;3.70;1.80;;;;;;;;;;4993538;28;20419;-65
2021/06/05 06:48:27;;;;;;;3.50;2.07;;;;;;;;;;4977043;28;20405;-65
2021/06/05 06:50:53;;;;;;;4.90;1.53;;;;;;;;;;4977152;28;20921;-66
2021/06/05 06:53:19;;;;;;;2.80;1.60;;;;;;;;;;4975984;28;20480;-65
2021/06/05 06:55:46;;;;;;;2.47;1.57;;;;;;;;;;4975487;28;20422;-65
2021/06/05 06:58:13;;;;;;;2.50;1.23;;;;;;;;;;4993732;28;20428;-65
2021/06/05 07:00:41;;;;;;;3.73;1.67;;;;;;;;;;4994839;28;20409;-65
2021/06/05 07:03:07;;;;;;;2.80;1.70;;;;;;;;;;4991758;28;20425;-65
2021/06/05 07:05:33;;;;;;;2.03;1.50;;;;;;;;;;4994917;28;20526;-65
2021/06/05 07:08:09;;;;;;;4.53;1.40;;;;;;;;;;4994042;28;20852;-65
2021/06/05 07:10:35;;;;;;;4.63;2.03;;;;;;;;;;4994703;28;20472;-64
2021/06/05 07:13:01;;;;;;;2.00;1.10;;;;;;;;;;4992187;28;20412;-65
2021/06/05 07:15:27;;;;;;;2.03;1.27;;;;;;;;;;4994965;28;20427;-65
2021/06/05 07:17:53;;;;;;;4.10;1.23;;;;;;;;;;4994455;28;20802;-66
2021/06/05 07:20:20;;;;;;;3.27;1.30;;;;;;;;;;4995942;28;20412;-64
2021/06/05 07:22:46;;;;;;;3.23;1.50;;;;;;;;;;4994508;28;20459;-65
2021/06/05 07:25:12;;;;;;;2.10;1.30;;;;;;;;;;4994797;28;20421;-65
2021/06/05 07:27:38;;;;;;;2.30;1.40;;;;;;;;;;4980216;28;20429;-65
2021/06/05 07:30:05;;;;;;;2.87;1.40;;;;;;;;;;4975000;28;20742;-65
2021/06/05 07:32:31;;;;;;;6.27;1.67;;;;;;;;;;4986249;28;20424;-65
2021/06/05 07:34:57;;;;;;;2.13;1.10;;;;;;;;;;4997423;28;20459;-65
2021/06/05 07:37:23;;;;;;;3.00;1.20;;;;;;;;;;4985799;28;20479;-65
2021/06/05 07:39:50;;;;;;;2.50;1.37;;;;;;;;;;4977264;28;20417;-65
2021/06/05 07:42:16;;;;;;;1.80;1.13;;;;;;;;;;4976829;28;20446;-65
2021/06/05 07:44:42;;;;;;;2.47;1.20;;;;;;;;;;4977258;28;20460;-65
2021/06/05 07:47:08;;;;;;;2.03;1.20;;;;;;;;;;4984624;28;20754;-65
2021/06/05 07:49:36;;;;;;;2.43;1.23;;;;;;;;;;4994209;28;20859;-64
2021/06/05 07:52:04;;;;;;;4.67;1.53;;;;;;;;;;4992933;28;20424;-65
2021/06/05 07:54:30;;;;;;;2.10;1.43;;;;;;;;;;4990465;28;20540;-65
2021/06/05 07:56:56;;;;;;;2.87;1.50;;;;;;;;;;4993773;28;20421;-65
2021/06/05 07:59:24;;;;;;;3.13;1.77;;;;;;;;;;4991755;28;20405;-65
2021/06/05 08:01:51;;;;;;;2.50;1.50;;;;;;;;;;4974795;28;20812;-63
2021/06/05 08:04:17;;;;;;;3.23;1.63;;;;;;;;;;4974696;28;20408;-65
2021/06/05 08:06:44;;;;;;;3.33;1.53;;;;;;;;;;4994006;28;20444;-65
2021/06/05 08:09:10;;;;;;;1.90;1.37;;;;;;;;;;4994198;28;20396;-65
2021/06/05 08:11:37;;;;;;;4.27;1.80;;;;;;;;;;4993103;28;20928;-65
2021/06/05 08:14:03;;;;;;;4.20;1.70;;;;;;;;;;4993660;28;20403;-65
2021/06/05 08:16:30;;;;;;;3.80;1.90;;;;;;;;;;4992783;28;20451;-64
2021/06/05 08:18:56;;;;;;;2.87;1.70;;;;;;;;;;4992346;28;20420;-64
2021/06/05 08:21:22;;;;;;;2.87;1.50;;;;;;;;;;4991761;28;20462;-65
2021/06/05 08:23:49;;;;;;;2.17;1.53;;;;;;;;;;4993557;28;20419;-64
2021/06/05 08:26:16;;;;;;;2.50;1.50;;;;;;;;;;4992491;28;20444;-64
2021/06/05 08:28:42;;;;;;;1.87;1.00;;;;;;;;;;4993664;28;20427;-66
2021/06/05 08:31:10;;;;;;;2.13;1.20;;;;;;;;;;4992496;28;20421;-66
2021/06/05 08:33:37;;;;;;;2.30;1.13;;;;;;;;;;4993307;28;20411;-65
2021/06/05 08:36:04;;;;;;;3.00;1.37;;;;;;;;;;4992768;28;20531;-65
2021/06/05 08:38:31;;;;;;;3.30;1.40;;;;;;;;;;4993402;28;20408;-66
2021/06/05 08:41:00;;;;;;;2.43;1.00;;;;;;;;;;4987933;28;20429;-66
2021/06/05 08:43:32;;;;;;;2.97;1.17;;;;;;;;;;4977810;28;20484;-65
2021/06/05 08:45:59;;;;;;;4.87;1.13;;;;;;;;;;4977778;28;20456;-64
2021/06/05 08:48:26;;;;;;;2.67;1.40;;;;;;;;;;4978150;28;20413;-65
2021/06/05 08:50:54;;;;;;;2.80;0.93;;;;;;;;;;4988717;28;20426;-64
2021/06/05 08:53:25;;;;;;;2.50;1.30;;;;;;;;;;4997206;28;20405;-65
2021/06/05 08:55:59;;;;;;;2.03;1.10;;;;;;;;;;4995891;28;20448;-65
2021/06/05 08:58:31;;;;;;;2.20;1.50;;;;;;;;;;4997260;28;20403;-66
2021/06/05 09:01:16;;;;;;;4.23;1.33;;;;;;;;;;4994372;28;20479;-65
2021/06/05 09:03:42;;;;;;;3.37;1.37;;;;;;;;;;4997069;28;20396;-65
2021/06/05 09:06:13;;;;;;;3.10;1.07;;;;;;;;;;4995564;28;20470;-65
2021/06/05 09:08:39;;;;;;;2.20;1.37;;;;;;;;;;4996818;28;20447;-66
2021/06/05 09:11:06;;;;;;;3.13;1.00;;;;;;;;;;4984192;28;20798;-65
2021/06/05 09:13:32;;;;;;;4.70;1.47;;;;;;;;;;4977466;28;20424;-65
2021/06/05 09:16:17;;;;;;;2.73;1.20;;;;;;;;;;4985313;28;20455;-66
2021/06/05 09:18:50;;;;;;;2.60;1.10;;;;;;;;;;4996555;28;20400;-66
2021/06/05 09:21:25;;;;;;;2.00;1.00;;;;;;;;;;4990423;28;20452;-66
2021/06/05 09:23:51;;;;;;;4.63;1.27;;;;;;;;;;4977247;28;20396;-66
2021/06/05 09:26:24;;;;;;;2.13;1.10;;;;;;;;;;4977766;28;20959;-65
2021/06/05 09:29:06;;;;;;;1.77;0.90;;;;;;;;;;4977201;28;20438;-66
2021/06/05 09:31:32;;;;;;;2.30;1.23;;;;;;;;;;4987575;28;20836;-66
2021/06/05 09:33:58;;;;;;;3.40;1.20;;;;;;;;;;4996570;28;20924;-66
2021/06/05 09:36:30;;;;;;;1.83;1.00;;;;;;;;;;4995510;28;20509;-65
2021/06/05 09:39:01;;;;;;;1.70;0.90;;;;;;;;;;4996663;28;20404;-66
2021/06/05 09:41:30;;;;;;;1.50;0.70;;;;;;;;;;4995514;28;20472;-66
2021/06/05 09:44:10;;;;;;;2.13;1.10;;;;;;;;;;4995428;28;20428;-66
2021/06/05 09:46:36;;;;;;;2.27;0.87;;;;;;;;;;4999061;28;20448;-66
2021/06/05 09:49:20;;;;;;;5.13;1.00;;;;;;;;;;5010091;28;20405;-66
2021/06/05 09:51:58;;;;;;;3.60;0.90;;;;;;;;;;5009194;28;20432;-66
2021/06/05 09:54:30;;;;;;;2.13;1.03;;;;;;;;;;5005371;28;20479;-66
2021/06/05 09:57:13;;;;;;;2.10;1.07;;;;;;;;;;4999980;28;20523;-66
2021/06/05 09:59:39;;;;;;;2.10;1.20;;;;;;;;;;4995475;28;20405;-66
2021/06/05 10:02:13;;;;;;;1.90;0.87;;;;;;;;;;4995259;28;20455;-65
2021/06/05 10:04:40;;;;;;;2.20;1.10;;;;;;;;;;4996196;28;20412;-66
2021/06/05 10:07:23;;;;;;;2.17;1.00;;;;;;;;;;4994793;28;20447;-66
2021/06/05 10:09:49;;;;;;;2.57;1.07;;;;;;;;;;4996071;28;20389;-66
2021/06/05 10:12:18;;;;;;;3.20;1.10;;;;;;;;;;4994703;28;20470;-65
2021/06/05 10:14:44;;;;;;;1.70;1.00;;;;;;;;;;4995753;28;20752;-65
2021/06/05 10:17:22;;;;;;;2.67;1.10;;;;;;;;;;4994772;28;20435;-65
2021/06/05 10:19:57;;;;;;;1.70;1.00;;;;;;;;;;4995882;28;20891;-64
2021/06/05 10:22:25;;;;;;;2.13;0.90;;;;;;;;;;4994354;28;20933;-65
2021/06/05 10:25:14;;;;;;;2.07;1.17;;;;;;;;;;4995532;28;20889;-66
2021/06/05 10:27:42;;;;;;;5.13;1.10;;;;;;;;;;4984601;28;20531;-65
2021/06/05 10:30:44;;;;;;;2.10;1.00;;;;;;;;;;4995439;28;20778;-65
2021/06/05 10:33:28;;;;;;;2.10;1.00;;;;;;;;;;4973823;28;20443;-65
2021/06/05 10:35:57;;;;;;;3.27;0.97;;;;;;;;;;4990300;28;20443;-66
2021/06/05 10:38:28;;;;;;;2.77;1.17;;;;;;;;;;4976131;28;20721;-65
2021/06/05 10:40:54;;;;;;;1.80;0.80;;;;;;;;;;4975889;28;20508;-66
2021/06/05 10:43:21;;;;;;;5.83;1.00;;;;;;;;;;4975886;28;20471;-65
2021/06/05 10:45:48;;;;;;;2.37;1.00;;;;;;;;;;4974278;28;20438;-65
2021/06/05 10:48:26;;;;;;;1.60;0.70;;;;;;;;;;4976397;28;20402;-64
2021/06/05 10:51:09;;;;;;;2.03;0.90;;;;;;;;;;4985008;28;20424;-65
2021/06/05 10:53:40;;;;;;;1.77;0.90;;;;;;;;;;4994959;28;20411;-65
2021/06/05 10:56:17;;;;;;;2.17;0.90;;;;;;;;;;4993997;28;20440;-65
2021/06/05 10:58:45;;;;;;;2.33;1.00;;;;;;;;;;4995183;28;20389;-65
2021/06/05 11:01:30;;;;;;;2.03;0.83;;;;;;;;;;4994009;28;20460;-65
2021/06/05 11:03:58;;;;;;;3.00;1.33;;;;;;;;;;4992839;28;20459;-65
2021/06/05 11:06:26;;;;;;;2.27;0.90;;;;;;;;;;4993339;28;20452;-65
2021/06/05 11:08:56;;;;;;;1.90;1.00;;;;;;;;;;4994766;28;20416;-65
2021/06/05 11:11:42;;;;;;;3.20;1.07;;;;;;;;;;4993652;28;20456;-65
2021/06/05 11:14:24;;;;;;;3.07;1.10;;;;;;;;;;4994607;28;20404;-65
2021/06/05 11:16:59;;;;;;;2.33;1.20;;;;;;;;;;4993359;28;20504;-65
2021/06/05 11:19:34;;;;;;;1.87;0.97;;;;;;;;;;4994415;28;20896;-65
2021/06/05 11:22:02;;;;;;;1.73;0.90;;;;;;;;;;4993454;28;20460;-65
2021/06/05 11:24:28;;;;;;;3.60;1.20;;;;;;;;;;4992039;28;20424;-65
2021/06/05 11:26:58;;;;;;;3.17;1.97;;;;;;;;;;4984900;28;20456;-65
2021/06/05 11:29:27;;;;;;;2.67;1.50;;;;;;;;;;4974915;28;20405;-65
2021/06/05 11:31:53;;;;;;;2.87;1.50;;;;;;;;;;4974566;28;20429;-65
2021/06/05 11:34:38;;;;;;;2.70;1.50;;;;;;;;;;4974663;28;20694;-65
2021/06/05 11:37:10;;;;;;;2.03;1.07;;;;;;;;;;4974545;28;20425;-65
2021/06/05 11:39:36;;;;;;;2.60;1.37;;;;;;;;;;4974513;28;20416;-65
2021/06/05 11:42:04;;;;;;;2.47;1.37;;;;;;;;;;4982969;28;20484;-65
2021/06/05 11:44:41;;;;;;;7.10;1.63;;;;;;;;;;4993922;28;20923;-65
2021/06/05 11:47:16;;;;;;;3.57;1.40;;;;;;;;;;4993476;28;20430;-65
2021/06/05 11:49:44;;;;;;;2.83;1.20;;;;;;;;;;4994068;28;20393;-65
2021/06/05 11:52:29;;;;;;;1.60;1.00;;;;;;;;;;4993136;28;20441;-65
2021/06/05 11:54:55;;;;;;;2.23;0.93;;;;;;;;;;4993866;28;20488;-65
2021/06/05 11:57:23;;;;;;;4.73;1.17;;;;;;;;;;4992111;28;20460;-65
2021/06/05 11:59:49;;;;;;;2.87;1.30;;;;;;;;;;4993805;28;20408;-65
2021/06/05 12:02:29;;;;;;;2.63;1.07;;;;;;;;;;4983443;28;20863;-65
2021/06/05 12:04:57;;;;;;;2.17;0.93;;;;;;;;;;4974407;28;20401;-65
2021/06/05 12:07:26;;;;;;;2.00;0.93;;;;;;;;;;4974416;28;20433;-65
2021/06/05 12:09:58;;;;;;;3.27;1.43;;;;;;;;;;4974349;28;20456;-65
2021/06/05 12:12:26;;;;;;;1.70;0.90;;;;;;;;;;4974342;28;20572;-65
2021/06/05 12:15:00;;;;;;;2.47;1.20;;;;;;;;;;4973949;28;20416;-65
2021/06/05 12:17:26;;;;;;;2.60;1.00;;;;;;;;;;4983931;28;20929;-65
2021/06/05 12:19:53;;;;;;;3.20;1.20;;;;;;;;;;4993452;28;20470;-65
2021/06/05 12:22:21;;;;;;;1.60;1.00;;;;;;;;;;4992522;28;20480;-65
2021/06/05 12:24:50;;;;;;;5.70;1.40;;;;;;;;;;4993573;28;20538;-65
2021/06/05 12:27:48;;;;;;;2.43;1.17;;;;;;;;;;4976570;28;20473;-65
2021/06/05 12:30:23;;;;;;;1.87;1.00;;;;;;;;;;4991424;28;20447;-65
2021/06/05 12:33:03;;;;;;;3.10;1.00;;;;;;;;;;4992302;28;20485;-65
2021/06/05 12:35:37;;;;;;;1.83;0.90;;;;;;;;;;4993439;28;20435;-65
2021/06/05 12:38:04;;;;;;;1.60;0.80;;;;;;;;;;4978108;28;20446;-65
2021/06/05 12:40:37;;;;;;;2.47;1.00;;;;;;;;;;4974635;28;20420;-65
2021/06/05 12:43:03;;;;;;;2.43;0.97;;;;;;;;;;4988896;28;20510;-65
2021/06/05 12:45:32;;;;;;;1.70;0.90;;;;;;;;;;4994572;28;20885;-65
2021/06/05 12:47:59;;;;;;;2.00;1.00;;;;;;;;;;4979672;28;20430;-65
2021/06/05 12:50:28;;;;;;;1.77;0.90;;;;;;;;;;4975506;28;20874;-65
2021/06/05 12:52:54;;;;;;;4.10;1.20;;;;;;;;;;4975790;28;20451;-66
2021/06/05 12:55:20;;;;;;;3.00;0.90;;;;;;;;;;4974456;28;20481;-66
2021/06/05 12:57:48;;;;;;;2.20;1.17;;;;;;;;;;4974330;28;20957;-66
2021/06/05 13:00:19;;;;;;;3.20;1.50;;;;;;;;;;4974075;28;20421;-66
2021/06/05 13:02:46;;;;;;;2.03;1.10;;;;;;;;;;4985350;28;20856;-66
2021/06/05 13:05:16;;;;;;;2.23;1.20;;;;;;;;;;4991485;28;20483;-66
2021/06/05 13:07:43;;;;;;;2.50;0.90;;;;;;;;;;4993020;28;20427;-65
2021/06/05 13:10:15;;;;;;;3.63;1.00;;;;;;;;;;4992513;28;20393;-66
2021/06/05 13:12:41;;;;;;;2.00;1.00;;;;;;;;;;4974071;28;20752;-65
2021/06/05 13:15:09;;;;;;;1.80;0.93;;;;;;;;;;4973125;28;20906;-66
2021/06/05 13:17:36;;;;;;;2.30;1.20;;;;;;;;;;4992860;28;20447;-65
2021/06/05 13:20:12;;;;;;;2.47;1.50;;;;;;;;;;4993101;28;20897;-65
2021/06/05 13:22:38;;;;;;;1.60;0.90;;;;;;;;;;4973595;28;20487;-66
2021/06/05 13:25:13;;;;;;;2.17;1.13;;;;;;;;;;4973695;28;20846;-65
2021/06/05 13:27:59;;;;;;;2.53;1.00;;;;;;;;;;4974129;28;20495;-65
2021/06/05 13:30:45;;;;;;;1.87;1.00;;;;;;;;;;4979290;28;20432;-66
2021/06/05 13:33:32;;;;;;;3.90;1.13;;;;;;;;;;4976921;28;20858;-65
2021/06/05 13:36:01;;;;;;;2.07;1.30;;;;;;;;;;4982278;28;20812;-65
2021/06/05 13:38:28;;;;;;;2.40;1.00;;;;;;;;;;4995288;28;20785;-65
2021/06/05 13:40:55;;;;;;;1.63;0.90;;;;;;;;;;4995345;28;20836;-65
2021/06/05 13:43:21;;;;;;;3.60;1.00;;;;;;;;;;4996158;28;20494;-65
2021/06/05 13:45:47;;;;;;;4.53;1.93;;;;;;;;;;4993734;28;20973;-65
2021/06/05 13:48:13;;;;;;;3.60;1.40;;;;;;;;;;4996140;28;20401;-65
2021/06/05 13:50:40;;;;;;;2.10;1.40;;;;;;;;;;4994369;28;20484;-65
2021/06/05 13:53:08;;;;;;;3.23;1.13;;;;;;;;;;4996261;28;20499;-65
2021/06/05 13:55:35;;;;;;;1.73;1.10;;;;;;;;;;4994419;28;20437;-65
2021/06/05 13:58:01;;;;;;;2.20;1.20;;;;;;;;;;4995997;28;20897;-65
2021/06/05 14:00:28;;;;;;;4.10;1.20;;;;;;;;;;4993934;28;20437;-65
2021/06/05 14:02:55;;;;;;;3.03;1.30;;;;;;;;;;4995753;28;20483;-65
2021/06/05 14:05:21;;;;;;;4.20;1.40;;;;;;;;;;4995524;28;21445;-65
2021/06/05 14:07:48;;;;;;;2.47;1.20;;;;;;;;;;4994635;28;20987;-65
2021/06/05 14:10:14;;;;;;;2.37;1.03;;;;;;;;;;4995072;28;20424;-65
2021/06/05 14:12:41;;;;;;;3.20;1.00;;;;;;;;;;4994872;28;20446;-65
2021/06/05 14:15:15;;;;;;;2.80;1.17;;;;;;;;;;4995838;28;20428;-65
2021/06/05 14:17:41;;;;;;;3.57;1.50;;;;;;;;;;4978365;28;20835;-65
2021/06/05 14:20:08;;;;;;;2.90;1.13;;;;;;;;;;4975970;28;20493;-65
2021/06/05 14:22:34;;;;;;;2.03;1.03;;;;;;;;;;4991586;28;20464;-65
2021/06/05 14:25:00;;;;;;;2.00;0.93;;;;;;;;;;4995663;28;20452;-65
2021/06/05 14:27:26;;;;;;;2.00;1.17;;;;;;;;;;4980227;28;20504;-65
2021/06/05 14:29:52;;;;;;;2.80;0.90;;;;;;;;;;4976205;28;20409;-65
2021/06/05 14:32:18;;;;;;;5.13;1.27;;;;;;;;;;4988160;28;20432;-65
2021/06/05 14:34:44;;;;;;;2.60;1.40;;;;;;;;;;4995268;28;20555;-65
2021/06/05 14:37:10;;;;;;;2.20;1.07;;;;;;;;;;4988261;28;20532;-66
2021/06/05 14:39:36;;;;;;;3.27;1.20;;;;;;;;;;4992980;28;20405;-65
2021/06/05 14:42:04;;;;;;;3.40;1.20;;;;;;;;;;4993313;28;20827;-65
2021/06/05 14:44:31;;;;;;;1.93;1.00;;;;;;;;;;4993594;28;20791;-65
2021/06/05 14:46:57;;;;;;;1.93;0.83;;;;;;;;;;4985446;28;20449;-65
2021/06/05 14:49:23;;;;;;;2.17;1.10;;;;;;;;;;4974557;28;20420;-65
2021/06/05 14:51:49;;;;;;;2.10;0.87;;;;;;;;;;4975807;28;20492;-64